sensor_id;sensor_type;location;lat;lon;timestamp;P1;durP1;ratioP1;P2;durP2;ratioP2
7561;SDS011;3822;48.784;9.174;2023-12-14T00:00:34;1.80;;;1.40;;
7561;SDS011;3822;48.784;9.174;2023-12-14T00:03:09;2.00;;;1.30;;
7561;SDS011;3822;48.784;9.174;2023-12-14T00:05:35;2.73;;;1.30;;
7561;SDS011;3822;48.784;9.174;2023-12-14T00:08:04;2.97;;;1.40;;
7561;SDS011;3822;48.784;9.174;2023-12-14T00:10:32;2.40;;;1.23;;
7561;SDS011;3822;48.784;9.174;2023-12-14T00:13:09;2.07;;;1.17;;
7561;SDS011;3822;48.784;9.174;2023-12-14T00:15:42;2.37;;;1.30;;
7561;SDS011;3822;48.784;9.174;2023-12-14T00:18:10;1.10;;;0.97;;
7561;SDS011;3822;48.784;9.174;2023-12-14T00:20:50;1.90;;;1.40;;
7561;SDS011;3822;48.784;9.174;2023-12-14T00:23:20;2.13;;;1.10;;
7561;SDS011;3822;48.784;9.174;2023-12-14T00:25:46;2.40;;;1.27;;
7561;SDS011;3822;48.784;9.174;2023-12-14T00:28:19;1.23;;;1.10;;
7561;SDS011;3822;48.784;9.174;2023-12-14T00:30:45;2.63;;;1.23;;
7561;SDS011;3822;48.784;9.174;2023-12-14T00:33:15;2.43;;;1.10;;
7561;SDS011;3822;48.784;9.174;2023-12-14T00:35:42;2.30;;;1.00;;
7561;SDS011;3822;48.784;9.174;2023-12-14T00:38:13;1.93;;;1.37;;
7561;SDS011;3822;48.784;9.174;2023-12-14T00:40:50;1.20;;;1.07;;
7561;SDS011;3822;48.784;9.174;2023-12-14T00:43:29;3.93;;;1.47;;
7561;SDS011;3822;48.784;9.174;2023-12-14T00:45:56;1.53;;;1.10;;
7561;SDS011;3822;48.784;9.174;2023-12-14T00:48:22;1.33;;;1.20;;
7561;SDS011;3822;48.784;9.174;2023-12-14T00:50:50;3.80;;;1.30;;
7561;SDS011;3822;48.784;9.174;2023-12-14T00:53:16;2.37;;;1.30;;
7561;SDS011;3822;48.784;9.174;2023-12-14T00:55:50;2.00;;;1.30;;
7561;SDS011;3822;48.784;9.174;2023-12-14T00:58:20;1.47;;;1.13;;
7561;SDS011;3822;48.784;9.174;2023-12-14T01:00:49;1.50;;;1.33;;
7561;SDS011;3822;48.784;9.174;2023-12-14T01:03:24;1.30;;;1.20;;
7561;SDS011;3822;48.784;9.174;2023-12-14T01:06:00;4.00;;;1.37;;
7561;SDS011;3822;48.784;9.174;2023-12-14T01:08:32;2.37;;;1.40;;
7561;SDS011;3822;48.784;9.174;2023-12-14T01:11:02;4.33;;;1.60;;
7561;SDS011;3822;48.784;9.174;2023-12-14T01:13:44;1.40;;;1.00;;
7561;SDS011;3822;48.784;9.174;2023-12-14T01:16:18;6.20;;;1.33;;
7561;SDS011;3822;48.784;9.174;2023-12-14T01:18:53;2.10;;;1.47;;
7561;SDS011;3822;48.784;9.174;2023-12-14T01:21:19;2.03;;;1.30;;
7561;SDS011;3822;48.784;9.174;2023-12-14T01:23:46;2.33;;;1.67;;
7561;SDS011;3822;48.784;9.174;2023-12-14T01:26:14;2.30;;;1.43;;
7561;SDS011;3822;48.784;9.174;2023-12-14T01:28:41;1.73;;;1.20;;
7561;SDS011;3822;48.784;9.174;2023-12-14T01:31:14;2.07;;;1.20;;
7561;SDS011;3822;48.784;9.174;2023-12-14T01:33:41;9.50;;;1.30;;
7561;SDS011;3822;48.784;9.174;2023-12-14T01:36:08;2.43;;;1.53;;
7561;SDS011;3822;48.784;9.174;2023-12-14T01:38:35;2.30;;;1.40;;
7561;SDS011;3822;48.784;9.174;2023-12-14T01:41:02;2.27;;;1.70;;
7561;SDS011;3822;48.784;9.174;2023-12-14T01:43:30;2.33;;;1.30;;
7561;SDS011;3822;48.784;9.174;2023-12-14T01:46:13;1.70;;;1.20;;
7561;SDS011;3822;48.784;9.174;2023-12-14T01:48:42;2.00;;;1.33;;
7561;SDS011;3822;48.784;9.174;2023-12-14T01:51:09;3.30;;;1.50;;
7561;SDS011;3822;48.784;9.174;2023-12-14T01:56:08;1.47;;;1.23;;
7561;SDS011;3822;48.784;9.174;2023-12-14T01:58:36;2.73;;;1.60;;
7561;SDS011;3822;48.784;9.174;2023-12-14T02:03:45;2.70;;;1.40;;
7561;SDS011;3822;48.784;9.174;2023-12-14T02:06:14;2.37;;;1.20;;
7561;SDS011;3822;48.784;9.174;2023-12-14T02:11:16;1.63;;;1.33;;
7561;SDS011;3822;48.784;9.174;2023-12-14T02:13:45;2.90;;;1.30;;
7561;SDS011;3822;48.784;9.174;2023-12-14T02:16:27;1.87;;;1.10;;
7561;SDS011;3822;48.784;9.174;2023-12-14T02:18:59;1.67;;;1.20;;
7561;SDS011;3822;48.784;9.174;2023-12-14T02:21:26;3.20;;;1.37;;
7561;SDS011;3822;48.784;9.174;2023-12-14T02:23:54;1.10;;;0.97;;
7561;SDS011;3822;48.784;9.174;2023-12-14T02:26:26;2.03;;;1.13;;
7561;SDS011;3822;48.784;9.174;2023-12-14T02:28:53;2.10;;;1.17;;
7561;SDS011;3822;48.784;9.174;2023-12-14T02:31:22;1.50;;;1.10;;
7561;SDS011;3822;48.784;9.174;2023-12-14T02:33:50;1.97;;;1.10;;
7561;SDS011;3822;48.784;9.174;2023-12-14T02:36:17;1.50;;;1.27;;
7561;SDS011;3822;48.784;9.174;2023-12-14T02:38:51;1.60;;;0.97;;
7561;SDS011;3822;48.784;9.174;2023-12-14T02:41:20;1.30;;;1.20;;
7561;SDS011;3822;48.784;9.174;2023-12-14T02:43:48;3.13;;;1.40;;
7561;SDS011;3822;48.784;9.174;2023-12-14T02:46:16;1.73;;;1.10;;
7561;SDS011;3822;48.784;9.174;2023-12-14T02:48:44;1.87;;;1.17;;
7561;SDS011;3822;48.784;9.174;2023-12-14T02:51:14;1.73;;;1.00;;
7561;SDS011;3822;48.784;9.174;2023-12-14T02:53:41;1.50;;;1.00;;
7561;SDS011;3822;48.784;9.174;2023-12-14T02:56:15;2.40;;;1.00;;
7561;SDS011;3822;48.784;9.174;2023-12-14T02:58:43;1.80;;;1.20;;
7561;SDS011;3822;48.784;9.174;2023-12-14T03:01:10;1.07;;;0.90;;
7561;SDS011;3822;48.784;9.174;2023-12-14T03:03:38;1.00;;;0.90;;
7561;SDS011;3822;48.784;9.174;2023-12-14T03:06:07;2.00;;;1.10;;
7561;SDS011;3822;48.784;9.174;2023-12-14T03:08:34;2.17;;;1.10;;
7561;SDS011;3822;48.784;9.174;2023-12-14T03:11:01;1.77;;;1.10;;
7561;SDS011;3822;48.784;9.174;2023-12-14T03:13:31;2.60;;;1.20;;
7561;SDS011;3822;48.784;9.174;2023-12-14T03:15:58;1.00;;;0.90;;
7561;SDS011;3822;48.784;9.174;2023-12-14T03:18:31;2.70;;;1.37;;
7561;SDS011;3822;48.784;9.174;2023-12-14T03:21:06;1.53;;;1.20;;
7561;SDS011;3822;48.784;9.174;2023-12-14T03:23:32;1.80;;;1.07;;
7561;SDS011;3822;48.784;9.174;2023-12-14T03:26:01;2.13;;;1.20;;
7561;SDS011;3822;48.784;9.174;2023-12-14T03:28:40;1.30;;;1.10;;
7561;SDS011;3822;48.784;9.174;2023-12-14T03:31:06;2.33;;;1.30;;
7561;SDS011;3822;48.784;9.174;2023-12-14T03:36:03;1.70;;;1.23;;
7561;SDS011;3822;48.784;9.174;2023-12-14T03:38:37;1.30;;;1.10;;
7561;SDS011;3822;48.784;9.174;2023-12-14T03:41:11;1.13;;;1.03;;
7561;SDS011;3822;48.784;9.174;2023-12-14T03:43:38;1.47;;;1.20;;
7561;SDS011;3822;48.784;9.174;2023-12-14T03:46:15;1.20;;;0.97;;
7561;SDS011;3822;48.784;9.174;2023-12-14T03:48:42;1.80;;;1.10;;
7561;SDS011;3822;48.784;9.174;2023-12-14T03:51:10;1.60;;;1.13;;
7561;SDS011;3822;48.784;9.174;2023-12-14T03:53:39;1.40;;;1.13;;
7561;SDS011;3822;48.784;9.174;2023-12-14T03:56:06;1.10;;;1.00;;
7561;SDS011;3822;48.784;9.174;2023-12-14T03:58:36;1.30;;;1.00;;
7561;SDS011;3822;48.784;9.174;2023-12-14T04:01:03;1.10;;;1.00;;
7561;SDS011;3822;48.784;9.174;2023-12-14T04:03:34;3.37;;;1.23;;
7561;SDS011;3822;48.784;9.174;2023-12-14T04:06:02;3.20;;;1.13;;
7561;SDS011;3822;48.784;9.174;2023-12-14T04:08:32;3.17;;;1.23;;
7561;SDS011;3822;48.784;9.174;2023-12-14T04:11:00;1.60;;;1.10;;
7561;SDS011;3822;48.784;9.174;2023-12-14T04:13:32;2.03;;;1.27;;
7561;SDS011;3822;48.784;9.174;2023-12-14T04:15:59;2.47;;;1.30;;
7561;SDS011;3822;48.784;9.174;2023-12-14T04:18:25;1.50;;;1.13;;
7561;SDS011;3822;48.784;9.174;2023-12-14T04:23:34;2.33;;;1.00;;
7561;SDS011;3822;48.784;9.174;2023-12-14T04:26:01;1.93;;;1.37;;
7561;SDS011;3822;48.784;9.174;2023-12-14T04:28:29;1.40;;;1.20;;
7561;SDS011;3822;48.784;9.174;2023-12-14T04:30:56;1.90;;;1.20;;
7561;SDS011;3822;48.784;9.174;2023-12-14T04:35:57;3.80;;;1.20;;
7561;SDS011;3822;48.784;9.174;2023-12-14T04:38:31;3.00;;;1.30;;
7561;SDS011;3822;48.784;9.174;2023-12-14T04:40:57;1.23;;;1.10;;
7561;SDS011;3822;48.784;9.174;2023-12-14T04:43:23;3.13;;;1.10;;
7561;SDS011;3822;48.784;9.174;2023-12-14T04:45:50;1.90;;;1.37;;
7561;SDS011;3822;48.784;9.174;2023-12-14T04:48:19;1.60;;;1.03;;
7561;SDS011;3822;48.784;9.174;2023-12-14T04:50:47;1.70;;;1.10;;
7561;SDS011;3822;48.784;9.174;2023-12-14T04:53:20;1.70;;;1.10;;
7561;SDS011;3822;48.784;9.174;2023-12-14T04:55:54;3.17;;;1.30;;
7561;SDS011;3822;48.784;9.174;2023-12-14T04:58:32;1.43;;;1.20;;
7561;SDS011;3822;48.784;9.174;2023-12-14T05:01:06;1.60;;;1.27;;
7561;SDS011;3822;48.784;9.174;2023-12-14T05:03:34;4.73;;;1.30;;
7561;SDS011;3822;48.784;9.174;2023-12-14T05:08:34;2.03;;;1.10;;
7561;SDS011;3822;48.784;9.174;2023-12-14T05:11:00;1.70;;;1.33;;
7561;SDS011;3822;48.784;9.174;2023-12-14T05:13:28;1.40;;;1.27;;
7561;SDS011;3822;48.784;9.174;2023-12-14T05:15:55;2.60;;;1.50;;
7561;SDS011;3822;48.784;9.174;2023-12-14T05:18:24;1.67;;;1.30;;
7561;SDS011;3822;48.784;9.174;2023-12-14T05:20:50;1.93;;;1.30;;
7561;SDS011;3822;48.784;9.174;2023-12-14T05:23:17;2.03;;;1.47;;
7561;SDS011;3822;48.784;9.174;2023-12-14T05:25:45;2.10;;;1.57;;
7561;SDS011;3822;48.784;9.174;2023-12-14T05:28:14;2.40;;;1.47;;
7561;SDS011;3822;48.784;9.174;2023-12-14T05:30:43;1.60;;;1.20;;
7561;SDS011;3822;48.784;9.174;2023-12-14T05:33:17;1.50;;;1.30;;
7561;SDS011;3822;48.784;9.174;2023-12-14T05:35:47;2.10;;;1.50;;
7561;SDS011;3822;48.784;9.174;2023-12-14T05:38:13;1.43;;;1.30;;
7561;SDS011;3822;48.784;9.174;2023-12-14T05:40:40;1.47;;;1.30;;
7561;SDS011;3822;48.784;9.174;2023-12-14T05:43:10;1.67;;;1.20;;
7561;SDS011;3822;48.784;9.174;2023-12-14T05:45:37;3.07;;;2.20;;
7561;SDS011;3822;48.784;9.174;2023-12-14T05:48:07;1.50;;;1.40;;
7561;SDS011;3822;48.784;9.174;2023-12-14T05:50:35;1.90;;;1.60;;
7561;SDS011;3822;48.784;9.174;2023-12-14T05:53:02;2.03;;;1.40;;
7561;SDS011;3822;48.784;9.174;2023-12-14T05:55:30;2.60;;;1.60;;
7561;SDS011;3822;48.784;9.174;2023-12-14T05:58:00;2.00;;;1.43;;
7561;SDS011;3822;48.784;9.174;2023-12-14T06:00:30;1.77;;;1.37;;
7561;SDS011;3822;48.784;9.174;2023-12-14T06:03:01;3.13;;;2.03;;
7561;SDS011;3822;48.784;9.174;2023-12-14T06:05:31;2.73;;;1.63;;
7561;SDS011;3822;48.784;9.174;2023-12-14T06:07:58;1.97;;;1.40;;
7561;SDS011;3822;48.784;9.174;2023-12-14T06:10:39;2.37;;;1.70;;
7561;SDS011;3822;48.784;9.174;2023-12-14T06:13:05;1.57;;;1.40;;
7561;SDS011;3822;48.784;9.174;2023-12-14T06:15:32;2.00;;;1.50;;
7561;SDS011;3822;48.784;9.174;2023-12-14T06:18:04;6.90;;;1.90;;
7561;SDS011;3822;48.784;9.174;2023-12-14T06:20:31;3.00;;;1.90;;
7561;SDS011;3822;48.784;9.174;2023-12-14T06:23:11;3.73;;;1.87;;
7561;SDS011;3822;48.784;9.174;2023-12-14T06:25:40;2.50;;;1.70;;
7561;SDS011;3822;48.784;9.174;2023-12-14T06:28:07;3.30;;;1.57;;
7561;SDS011;3822;48.784;9.174;2023-12-14T06:30:35;2.10;;;1.67;;
7561;SDS011;3822;48.784;9.174;2023-12-14T06:33:08;3.67;;;1.70;;
7561;SDS011;3822;48.784;9.174;2023-12-14T06:35:42;4.33;;;1.87;;
7561;SDS011;3822;48.784;9.174;2023-12-14T06:38:09;2.50;;;1.93;;
7561;SDS011;3822;48.784;9.174;2023-12-14T06:40:38;4.03;;;1.97;;
7561;SDS011;3822;48.784;9.174;2023-12-14T06:43:04;2.23;;;1.63;;
7561;SDS011;3822;48.784;9.174;2023-12-14T06:45:36;2.07;;;1.87;;
7561;SDS011;3822;48.784;9.174;2023-12-14T06:48:05;1.87;;;1.60;;
7561;SDS011;3822;48.784;9.174;2023-12-14T06:50:33;2.50;;;1.73;;
7561;SDS011;3822;48.784;9.174;2023-12-14T06:53:09;2.93;;;2.13;;
7561;SDS011;3822;48.784;9.174;2023-12-14T06:55:36;2.13;;;1.80;;
7561;SDS011;3822;48.784;9.174;2023-12-14T06:58:05;2.43;;;2.10;;
7561;SDS011;3822;48.784;9.174;2023-12-14T07:00:42;3.30;;;2.33;;
7561;SDS011;3822;48.784;9.174;2023-12-14T07:03:12;2.77;;;2.30;;
7561;SDS011;3822;48.784;9.174;2023-12-14T07:05:41;3.13;;;2.00;;
7561;SDS011;3822;48.784;9.174;2023-12-14T07:08:14;3.00;;;2.37;;
7561;SDS011;3822;48.784;9.174;2023-12-14T07:10:41;2.43;;;2.10;;
7561;SDS011;3822;48.784;9.174;2023-12-14T07:13:10;2.50;;;2.00;;
7561;SDS011;3822;48.784;9.174;2023-12-14T07:15:38;2.30;;;1.93;;
7561;SDS011;3822;48.784;9.174;2023-12-14T07:18:06;3.37;;;2.53;;
7561;SDS011;3822;48.784;9.174;2023-12-14T07:20:35;3.17;;;2.00;;
7561;SDS011;3822;48.784;9.174;2023-12-14T07:23:05;5.40;;;2.67;;
7561;SDS011;3822;48.784;9.174;2023-12-14T07:25:31;2.70;;;2.10;;
7561;SDS011;3822;48.784;9.174;2023-12-14T07:28:00;4.00;;;2.27;;
7561;SDS011;3822;48.784;9.174;2023-12-14T07:30:28;2.57;;;2.13;;
7561;SDS011;3822;48.784;9.174;2023-12-14T07:32:54;2.67;;;2.20;;
7561;SDS011;3822;48.784;9.174;2023-12-14T07:35:25;5.20;;;2.77;;
7561;SDS011;3822;48.784;9.174;2023-12-14T07:37:51;3.43;;;2.50;;
7561;SDS011;3822;48.784;9.174;2023-12-14T07:40:18;2.47;;;2.27;;
7561;SDS011;3822;48.784;9.174;2023-12-14T07:42:44;2.63;;;2.40;;
7561;SDS011;3822;48.784;9.174;2023-12-14T07:45:11;3.70;;;2.60;;
7561;SDS011;3822;48.784;9.174;2023-12-14T07:47:37;3.60;;;2.57;;
7561;SDS011;3822;48.784;9.174;2023-12-14T07:50:11;4.13;;;2.20;;
7561;SDS011;3822;48.784;9.174;2023-12-14T07:52:38;3.50;;;3.00;;
7561;SDS011;3822;48.784;9.174;2023-12-14T07:55:05;3.40;;;2.80;;
7561;SDS011;3822;48.784;9.174;2023-12-14T07:57:33;4.20;;;3.10;;
7561;SDS011;3822;48.784;9.174;2023-12-14T08:00:00;3.90;;;3.00;;
7561;SDS011;3822;48.784;9.174;2023-12-14T08:02:30;4.90;;;2.60;;
7561;SDS011;3822;48.784;9.174;2023-12-14T08:04:59;4.13;;;2.50;;
7561;SDS011;3822;48.784;9.174;2023-12-14T08:07:26;4.00;;;2.33;;
7561;SDS011;3822;48.784;9.174;2023-12-14T08:09:57;4.83;;;3.53;;
7561;SDS011;3822;48.784;9.174;2023-12-14T08:17:40;9.80;;;3.57;;
7561;SDS011;3822;48.784;9.174;2023-12-14T08:20:09;3.80;;;3.13;;
7561;SDS011;3822;48.784;9.174;2023-12-14T08:22:44;5.07;;;3.37;;
7561;SDS011;3822;48.784;9.174;2023-12-14T08:25:16;5.77;;;3.33;;
7561;SDS011;3822;48.784;9.174;2023-12-14T08:33:09;7.30;;;3.60;;
7561;SDS011;3822;48.784;9.174;2023-12-14T08:35:42;4.80;;;3.50;;
7561;SDS011;3822;48.784;9.174;2023-12-14T08:38:09;4.13;;;3.17;;
7561;SDS011;3822;48.784;9.174;2023-12-14T08:40:59;5.67;;;3.53;;
7561;SDS011;3822;48.784;9.174;2023-12-14T08:43:26;5.60;;;3.27;;
7561;SDS011;3822;48.784;9.174;2023-12-14T08:45:52;4.80;;;3.30;;
7561;SDS011;3822;48.784;9.174;2023-12-14T08:48:23;4.10;;;3.60;;
7561;SDS011;3822;48.784;9.174;2023-12-14T08:50:53;4.93;;;3.30;;
7561;SDS011;3822;48.784;9.174;2023-12-14T08:53:29;3.87;;;3.40;;
7561;SDS011;3822;48.784;9.174;2023-12-14T08:56:05;4.20;;;3.20;;
7561;SDS011;3822;48.784;9.174;2023-12-14T08:58:37;6.13;;;2.90;;
7561;SDS011;3822;48.784;9.174;2023-12-14T09:01:06;3.87;;;3.17;;
7561;SDS011;3822;48.784;9.174;2023-12-14T09:03:34;5.57;;;3.50;;
7561;SDS011;3822;48.784;9.174;2023-12-14T09:06:07;4.33;;;3.50;;
7561;SDS011;3822;48.784;9.174;2023-12-14T09:11:14;5.20;;;3.50;;
7561;SDS011;3822;48.784;9.174;2023-12-14T09:16:46;5.57;;;3.30;;
7561;SDS011;3822;48.784;9.174;2023-12-14T09:19:13;3.93;;;3.00;;
7561;SDS011;3822;48.784;9.174;2023-12-14T09:21:39;4.33;;;3.70;;
7561;SDS011;3822;48.784;9.174;2023-12-14T09:24:09;5.10;;;3.73;;
7561;SDS011;3822;48.784;9.174;2023-12-14T09:26:36;7.27;;;4.03;;
7561;SDS011;3822;48.784;9.174;2023-12-14T09:29:04;3.60;;;3.30;;
7561;SDS011;3822;48.784;9.174;2023-12-14T09:31:34;5.40;;;3.30;;
7561;SDS011;3822;48.784;9.174;2023-12-14T09:34:07;4.40;;;3.70;;
7561;SDS011;3822;48.784;9.174;2023-12-14T09:36:38;7.17;;;3.70;;
7561;SDS011;3822;48.784;9.174;2023-12-14T09:39:33;5.50;;;3.20;;
7561;SDS011;3822;48.784;9.174;2023-12-14T09:42:10;4.47;;;3.63;;
7561;SDS011;3822;48.784;9.174;2023-12-14T09:44:36;5.50;;;4.07;;
7561;SDS011;3822;48.784;9.174;2023-12-14T09:47:14;6.10;;;4.30;;
7561;SDS011;3822;48.784;9.174;2023-12-14T09:49:44;6.33;;;3.40;;
7561;SDS011;3822;48.784;9.174;2023-12-14T09:52:11;5.73;;;4.27;;
7561;SDS011;3822;48.784;9.174;2023-12-14T09:54:38;4.90;;;4.20;;
7561;SDS011;3822;48.784;9.174;2023-12-14T09:57:05;4.97;;;3.77;;
7561;SDS011;3822;48.784;9.174;2023-12-14T10:02:50;6.80;;;4.80;;
7561;SDS011;3822;48.784;9.174;2023-12-14T10:08:08;10.60;;;4.80;;
7561;SDS011;3822;48.784;9.174;2023-12-14T10:10:41;6.50;;;4.63;;
7561;SDS011;3822;48.784;9.174;2023-12-14T10:13:14;8.07;;;5.57;;
7561;SDS011;3822;48.784;9.174;2023-12-14T10:15:41;6.50;;;4.77;;
7561;SDS011;3822;48.784;9.174;2023-12-14T10:18:25;6.90;;;4.80;;
7561;SDS011;3822;48.784;9.174;2023-12-14T10:20:57;6.83;;;5.00;;
7561;SDS011;3822;48.784;9.174;2023-12-14T10:23:24;12.03;;;4.73;;
7561;SDS011;3822;48.784;9.174;2023-12-14T10:25:53;7.43;;;5.20;;
7561;SDS011;3822;48.784;9.174;2023-12-14T10:28:22;8.27;;;4.77;;
7561;SDS011;3822;48.784;9.174;2023-12-14T10:30:52;8.00;;;4.80;;
7561;SDS011;3822;48.784;9.174;2023-12-14T10:33:18;9.17;;;4.60;;
7561;SDS011;3822;48.784;9.174;2023-12-14T10:35:45;9.83;;;4.13;;
7561;SDS011;3822;48.784;9.174;2023-12-14T10:38:15;7.73;;;5.00;;
7561;SDS011;3822;48.784;9.174;2023-12-14T10:40:53;7.40;;;4.60;;
7561;SDS011;3822;48.784;9.174;2023-12-14T10:43:25;4.87;;;3.67;;
7561;SDS011;3822;48.784;9.174;2023-12-14T10:45:53;6.23;;;3.53;;
7561;SDS011;3822;48.784;9.174;2023-12-14T10:48:20;8.07;;;3.20;;
7561;SDS011;3822;48.784;9.174;2023-12-14T10:50:48;4.40;;;3.63;;
7561;SDS011;3822;48.784;9.174;2023-12-14T10:53:16;5.23;;;3.70;;
7561;SDS011;3822;48.784;9.174;2023-12-14T10:55:43;10.03;;;4.40;;
7561;SDS011;3822;48.784;9.174;2023-12-14T10:58:11;6.17;;;4.30;;
7561;SDS011;3822;48.784;9.174;2023-12-14T11:00:44;7.80;;;4.70;;
7561;SDS011;3822;48.784;9.174;2023-12-14T11:06:30;7.10;;;4.30;;
7561;SDS011;3822;48.784;9.174;2023-12-14T11:09:10;7.90;;;4.77;;
7561;SDS011;3822;48.784;9.174;2023-12-14T11:11:41;5.00;;;4.10;;
7561;SDS011;3822;48.784;9.174;2023-12-14T11:14:29;6.10;;;4.10;;
7561;SDS011;3822;48.784;9.174;2023-12-14T11:17:01;7.27;;;4.23;;
7561;SDS011;3822;48.784;9.174;2023-12-14T11:22:23;4.30;;;3.67;;
7561;SDS011;3822;48.784;9.174;2023-12-14T11:24:55;5.23;;;4.10;;
7561;SDS011;3822;48.784;9.174;2023-12-14T11:27:26;5.73;;;4.20;;
7561;SDS011;3822;48.784;9.174;2023-12-14T11:29:59;6.87;;;4.07;;
7561;SDS011;3822;48.784;9.174;2023-12-14T11:32:35;8.63;;;4.90;;
7561;SDS011;3822;48.784;9.174;2023-12-14T11:35:06;11.00;;;4.47;;
7561;SDS011;3822;48.784;9.174;2023-12-14T11:37:36;7.87;;;4.13;;
7561;SDS011;3822;48.784;9.174;2023-12-14T11:45:11;7.70;;;4.20;;
7561;SDS011;3822;48.784;9.174;2023-12-14T11:47:40;6.00;;;3.70;;
7561;SDS011;3822;48.784;9.174;2023-12-14T11:50:15;9.00;;;3.60;;
7561;SDS011;3822;48.784;9.174;2023-12-14T11:52:42;5.73;;;3.70;;
7561;SDS011;3822;48.784;9.174;2023-12-14T11:55:15;7.03;;;4.40;;
7561;SDS011;3822;48.784;9.174;2023-12-14T11:57:48;6.30;;;3.60;;
7561;SDS011;3822;48.784;9.174;2023-12-14T12:00:18;3.63;;;3.03;;
7561;SDS011;3822;48.784;9.174;2023-12-14T12:02:59;5.23;;;3.07;;
7561;SDS011;3822;48.784;9.174;2023-12-14T12:05:39;4.77;;;2.77;;
7561;SDS011;3822;48.784;9.174;2023-12-14T12:08:08;5.37;;;2.73;;
7561;SDS011;3822;48.784;9.174;2023-12-14T12:10:38;7.03;;;2.10;;
7561;SDS011;3822;48.784;9.174;2023-12-14T12:13:16;2.73;;;2.20;;
7561;SDS011;3822;48.784;9.174;2023-12-14T12:15:46;3.70;;;2.00;;
7561;SDS011;3822;48.784;9.174;2023-12-14T12:18:14;6.10;;;1.80;;
7561;SDS011;3822;48.784;9.174;2023-12-14T12:20:42;2.43;;;1.90;;
7561;SDS011;3822;48.784;9.174;2023-12-14T12:23:13;2.73;;;1.80;;
7561;SDS011;3822;48.784;9.174;2023-12-14T12:25:44;3.53;;;2.20;;
7561;SDS011;3822;48.784;9.174;2023-12-14T12:30:46;2.27;;;1.70;;
7561;SDS011;3822;48.784;9.174;2023-12-14T12:33:13;3.27;;;1.87;;
7561;SDS011;3822;48.784;9.174;2023-12-14T12:35:41;2.57;;;1.90;;
7561;SDS011;3822;48.784;9.174;2023-12-14T12:38:08;3.93;;;1.87;;
7561;SDS011;3822;48.784;9.174;2023-12-14T12:40:47;3.73;;;1.70;;
7561;SDS011;3822;48.784;9.174;2023-12-14T12:43:14;2.10;;;1.60;;
7561;SDS011;3822;48.784;9.174;2023-12-14T12:45:41;3.13;;;2.13;;
7561;SDS011;3822;48.784;9.174;2023-12-14T12:48:08;2.30;;;1.73;;
7561;SDS011;3822;48.784;9.174;2023-12-14T12:50:47;5.03;;;1.97;;
7561;SDS011;3822;48.784;9.174;2023-12-14T12:56:21;3.60;;;1.97;;
7561;SDS011;3822;48.784;9.174;2023-12-14T12:58:53;1.80;;;1.60;;
7561;SDS011;3822;48.784;9.174;2023-12-14T13:01:21;2.60;;;1.53;;
7561;SDS011;3822;48.784;9.174;2023-12-14T13:03:56;2.90;;;1.93;;
7561;SDS011;3822;48.784;9.174;2023-12-14T13:06:27;2.40;;;1.60;;
7561;SDS011;3822;48.784;9.174;2023-12-14T13:09:01;1.97;;;1.50;;
7561;SDS011;3822;48.784;9.174;2023-12-14T13:11:29;1.67;;;1.53;;
7561;SDS011;3822;48.784;9.174;2023-12-14T13:13:55;3.33;;;1.40;;
7561;SDS011;3822;48.784;9.174;2023-12-14T13:21:44;2.63;;;1.40;;
7561;SDS011;3822;48.784;9.174;2023-12-14T13:24:11;1.60;;;1.40;;
7561;SDS011;3822;48.784;9.174;2023-12-14T13:26:44;3.50;;;1.90;;
7561;SDS011;3822;48.784;9.174;2023-12-14T13:29:10;2.70;;;1.53;;
7561;SDS011;3822;48.784;9.174;2023-12-14T13:34:27;2.43;;;1.47;;
7561;SDS011;3822;48.784;9.174;2023-12-14T13:36:55;1.60;;;1.40;;
7561;SDS011;3822;48.784;9.174;2023-12-14T13:39:22;3.10;;;1.30;;
7561;SDS011;3822;48.784;9.174;2023-12-14T13:41:49;2.10;;;1.50;;
7561;SDS011;3822;48.784;9.174;2023-12-14T13:44:15;1.93;;;1.47;;
7561;SDS011;3822;48.784;9.174;2023-12-14T13:46:44;1.80;;;1.50;;
7561;SDS011;3822;48.784;9.174;2023-12-14T13:52:06;2.50;;;1.60;;
7561;SDS011;3822;48.784;9.174;2023-12-14T13:54:33;2.00;;;1.67;;
7561;SDS011;3822;48.784;9.174;2023-12-14T13:57:07;2.73;;;1.63;;
7561;SDS011;3822;48.784;9.174;2023-12-14T13:59:36;2.03;;;1.70;;
7561;SDS011;3822;48.784;9.174;2023-12-14T14:02:07;2.60;;;1.70;;
7561;SDS011;3822;48.784;9.174;2023-12-14T14:04:35;1.90;;;1.40;;
7561;SDS011;3822;48.784;9.174;2023-12-14T14:07:04;2.77;;;1.60;;
7561;SDS011;3822;48.784;9.174;2023-12-14T14:09:34;2.70;;;1.77;;
7561;SDS011;3822;48.784;9.174;2023-12-14T14:12:06;3.80;;;2.60;;
7561;SDS011;3822;48.784;9.174;2023-12-14T14:14:40;3.83;;;2.60;;
7561;SDS011;3822;48.784;9.174;2023-12-14T14:17:16;3.80;;;2.47;;
7561;SDS011;3822;48.784;9.174;2023-12-14T14:22:28;4.13;;;3.10;;
7561;SDS011;3822;48.784;9.174;2023-12-14T14:33:04;6.33;;;4.43;;
7561;SDS011;3822;48.784;9.174;2023-12-14T14:35:45;6.00;;;3.87;;
7561;SDS011;3822;48.784;9.174;2023-12-14T14:38:14;4.13;;;3.20;;
7561;SDS011;3822;48.784;9.174;2023-12-14T14:40:50;6.70;;;5.03;;
7561;SDS011;3822;48.784;9.174;2023-12-14T14:43:20;5.90;;;4.07;;
7561;SDS011;3822;48.784;9.174;2023-12-14T14:45:50;7.30;;;5.03;;
7561;SDS011;3822;48.784;9.174;2023-12-14T14:51:21;7.40;;;5.40;;
7561;SDS011;3822;48.784;9.174;2023-12-14T14:53:55;9.30;;;5.30;;
7561;SDS011;3822;48.784;9.174;2023-12-14T14:56:36;7.27;;;4.87;;
7561;SDS011;3822;48.784;9.174;2023-12-14T14:59:25;7.73;;;4.97;;
7561;SDS011;3822;48.784;9.174;2023-12-14T15:02:01;8.20;;;5.10;;
7561;SDS011;3822;48.784;9.174;2023-12-14T15:04:46;9.60;;;5.87;;
7561;SDS011;3822;48.784;9.174;2023-12-14T15:07:20;8.50;;;5.83;;
7561;SDS011;3822;48.784;9.174;2023-12-14T15:09:46;7.97;;;4.93;;
7561;SDS011;3822;48.784;9.174;2023-12-14T15:15:10;7.50;;;5.70;;
7561;SDS011;3822;48.784;9.174;2023-12-14T15:20:28;8.63;;;5.93;;
7561;SDS011;3822;48.784;9.174;2023-12-14T15:25:42;9.17;;;6.17;;
7561;SDS011;3822;48.784;9.174;2023-12-14T15:28:08;9.00;;;6.43;;
7561;SDS011;3822;48.784;9.174;2023-12-14T15:33:14;14.90;;;7.00;;
7561;SDS011;3822;48.784;9.174;2023-12-14T15:35:48;10.13;;;6.00;;
7561;SDS011;3822;48.784;9.174;2023-12-14T15:38:17;9.27;;;5.80;;
7561;SDS011;3822;48.784;9.174;2023-12-14T15:48:54;8.83;;;6.30;;
7561;SDS011;3822;48.784;9.174;2023-12-14T15:51:23;10.10;;;6.40;;
7561;SDS011;3822;48.784;9.174;2023-12-14T15:56:51;12.13;;;5.97;;
7561;SDS011;3822;48.784;9.174;2023-12-14T16:02:48;9.50;;;6.50;;
7561;SDS011;3822;48.784;9.174;2023-12-14T16:05:15;9.07;;;5.80;;
7561;SDS011;3822;48.784;9.174;2023-12-14T16:07:45;10.40;;;6.67;;
7561;SDS011;3822;48.784;9.174;2023-12-14T16:10:18;7.80;;;5.43;;
7561;SDS011;3822;48.784;9.174;2023-12-14T16:12:53;9.97;;;6.73;;
7561;SDS011;3822;48.784;9.174;2023-12-14T16:15:22;9.27;;;6.07;;
7561;SDS011;3822;48.784;9.174;2023-12-14T16:17:48;8.77;;;5.90;;
7561;SDS011;3822;48.784;9.174;2023-12-14T16:20:18;10.97;;;6.40;;
7561;SDS011;3822;48.784;9.174;2023-12-14T16:22:45;8.90;;;5.60;;
7561;SDS011;3822;48.784;9.174;2023-12-14T16:25:21;9.10;;;5.10;;
7561;SDS011;3822;48.784;9.174;2023-12-14T16:27:50;11.43;;;6.30;;
7561;SDS011;3822;48.784;9.174;2023-12-14T16:30:16;9.03;;;6.03;;
7561;SDS011;3822;48.784;9.174;2023-12-14T16:32:43;10.00;;;5.90;;
7561;SDS011;3822;48.784;9.174;2023-12-14T16:35:09;9.40;;;6.60;;
7561;SDS011;3822;48.784;9.174;2023-12-14T16:37:47;8.77;;;5.63;;
7561;SDS011;3822;48.784;9.174;2023-12-14T16:40:17;8.37;;;5.30;;
7561;SDS011;3822;48.784;9.174;2023-12-14T16:42:48;9.07;;;6.03;;
7561;SDS011;3822;48.784;9.174;2023-12-14T16:45:18;9.53;;;6.03;;
7561;SDS011;3822;48.784;9.174;2023-12-14T16:47:45;10.20;;;6.50;;
7561;SDS011;3822;48.784;9.174;2023-12-14T16:50:14;12.17;;;6.10;;
7561;SDS011;3822;48.784;9.174;2023-12-14T16:52:52;14.40;;;7.00;;
7561;SDS011;3822;48.784;9.174;2023-12-14T16:55:25;9.20;;;5.80;;
7561;SDS011;3822;48.784;9.174;2023-12-14T16:58:08;9.37;;;6.10;;
7561;SDS011;3822;48.784;9.174;2023-12-14T17:01:16;9.70;;;5.87;;
7561;SDS011;3822;48.784;9.174;2023-12-14T17:04:00;11.50;;;5.27;;
7561;SDS011;3822;48.784;9.174;2023-12-14T17:06:28;9.37;;;6.40;;
7561;SDS011;3822;48.784;9.174;2023-12-14T17:09:10;8.47;;;5.53;;
7561;SDS011;3822;48.784;9.174;2023-12-14T17:11:52;8.20;;;5.43;;
7561;SDS011;3822;48.784;9.174;2023-12-14T17:14:20;6.93;;;4.63;;
7561;SDS011;3822;48.784;9.174;2023-12-14T17:20:08;6.60;;;4.93;;
7561;SDS011;3822;48.784;9.174;2023-12-14T17:22:36;10.73;;;3.90;;
7561;SDS011;3822;48.784;9.174;2023-12-14T17:25:16;5.63;;;3.60;;